createdAt,value
2023-01-20T00:01:48.032Z,20.17
2023-01-20T00:04:18.987Z,21.67
2023-01-20T00:06:47.741Z,19.63
2023-01-20T00:09:19.669Z,18.20
2023-01-20T00:11:48.462Z,18.67
2023-01-20T00:14:17.663Z,18.52
2023-01-20T00:16:46.099Z,17.52
2023-01-20T00:19:15.786Z,17.80
2023-01-20T00:21:44.237Z,16.70
2023-01-20T00:24:12.951Z,18.38
2023-01-20T00:26:43.034Z,19.25
2023-01-20T00:29:11.715Z,17.98
2023-01-20T00:31:40.335Z,18.05
2023-01-20T00:34:10.747Z,18.48
2023-01-20T00:36:39.562Z,19.33
2023-01-20T00:39:07.913Z,19.58
2023-01-20T00:41:36.402Z,17.92
2023-01-20T00:44:06.744Z,18.90
2023-01-20T00:46:35.000Z,19.10
2023-01-20T00:49:03.588Z,18.15
2023-01-20T00:51:31.976Z,19.30
2023-01-20T00:54:00.359Z,19.73
2023-01-20T00:56:29.028Z,18.73
2023-01-20T00:58:57.349Z,18.77
2023-01-20T01:01:27.248Z,19.92
2023-01-20T01:03:55.827Z,18.95
2023-01-20T01:06:24.440Z,20.13
2023-01-20T01:08:53.035Z,19.80
2023-01-20T01:11:21.505Z,20.25
2023-01-20T01:13:49.879Z,20.33
2023-01-20T01:16:18.198Z,19.52
2023-01-20T01:18:48.078Z,21.05
2023-01-20T01:21:18.295Z,21.02
2023-01-20T01:23:46.792Z,21.60
2023-01-20T01:26:16.144Z,20.17
2023-01-20T01:28:44.788Z,21.63
2023-01-20T01:31:13.271Z,22.55
2023-01-20T01:33:41.984Z,21.75
2023-01-20T01:36:15.659Z,22.00
2023-01-20T01:38:44.194Z,21.95
2023-01-20T01:41:15.133Z,21.20
2023-01-20T01:44:03.433Z,21.63
2023-01-20T01:46:31.793Z,22.52
2023-01-20T01:49:02.338Z,23.48
2023-01-20T01:51:37.225Z,22.38
2023-01-20T01:54:10.966Z,25.92
2023-01-20T01:56:41.716Z,23.27
2023-01-20T01:59:16.246Z,23.55
2023-01-20T02:01:50.745Z,23.15
2023-01-20T02:04:22.234Z,22.70
2023-01-20T02:06:55.877Z,24.52
2023-01-20T02:09:26.444Z,23.45
2023-01-20T02:11:58.098Z,23.30
2023-01-20T02:14:32.521Z,23.80
2023-01-20T02:17:06.940Z,22.38
2023-01-20T02:20:07.691Z,23.63
2023-01-20T02:22:45.190Z,23.67
2023-01-20T02:26:12.671Z,22.27
2023-01-20T02:29:25.106Z,23.83
2023-01-20T02:32:26.549Z,24.30
2023-01-20T02:35:01.974Z,22.98
2023-01-20T02:37:37.215Z,22.85
2023-01-20T02:40:20.238Z,22.58
2023-01-20T02:42:58.923Z,24.02
2023-01-20T02:45:33.925Z,22.95
2023-01-20T02:48:10.809Z,24.38
2023-01-20T02:50:47.353Z,23.95
2023-01-20T02:53:18.027Z,23.20
2023-01-20T02:55:50.234Z,24.20
2023-01-20T02:58:25.428Z,26.13
2023-01-20T03:00:58.806Z,24.83
2023-01-20T03:03:34.578Z,26.27
2023-01-20T03:06:09.012Z,27.75
2023-01-20T03:08:40.063Z,26.30
2023-01-20T03:11:10.578Z,27.30
2023-01-20T03:13:47.251Z,28.42
2023-01-20T03:16:20.140Z,27.45
2023-01-20T03:18:51.053Z,26.98
2023-01-20T03:21:20.431Z,26.02
2023-01-20T03:23:51.958Z,25.55
2023-01-20T03:26:23.522Z,24.40
2023-01-20T03:28:53.498Z,24.17
2023-01-20T03:31:27.521Z,27.30
2023-01-20T03:34:01.241Z,26.67
2023-01-20T03:36:32.111Z,25.92
2023-01-20T03:39:01.636Z,24.00
2023-01-20T03:41:43.674Z,24.98
2023-01-20T03:44:20.873Z,25.53
2023-01-20T03:46:55.048Z,25.40
2023-01-20T03:49:34.097Z,24.20
2023-01-20T03:52:08.647Z,24.63
2023-01-20T03:54:46.093Z,26.60
2023-01-20T03:57:20.881Z,24.30
2023-01-20T03:59:52.393Z,23.80
2023-01-20T04:02:21.927Z,22.35
2023-01-20T04:04:54.283Z,24.08
2023-01-20T04:07:26.339Z,21.50
2023-01-20T04:10:01.962Z,16.40
2023-01-20T04:12:30.759Z,20.38
2023-01-20T04:15:02.097Z,21.55
2023-01-20T04:17:31.127Z,20.77
2023-01-20T04:20:05.476Z,21.27
2023-01-20T04:22:40.458Z,21.25
2023-01-20T04:25:16.425Z,20.33
2023-01-20T04:27:44.784Z,19.95
2023-01-20T04:30:15.799Z,20.90
2023-01-20T04:32:44.316Z,19.90
2023-01-20T04:35:17.192Z,21.73
2023-01-20T04:37:46.015Z,19.08
2023-01-20T04:40:15.034Z,20.23
2023-01-20T04:42:43.912Z,19.15
2023-01-20T04:45:17.315Z,22.77
2023-01-20T04:47:46.174Z,18.20
2023-01-20T04:50:16.861Z,19.17
2023-01-20T04:52:45.730Z,19.55
2023-01-20T04:55:14.982Z,19.40
2023-01-20T04:57:43.780Z,21.98
2023-01-20T05:00:18.678Z,24.58
2023-01-20T05:02:47.616Z,24.05
2023-01-20T05:05:18.052Z,23.52
2023-01-20T05:07:46.562Z,25.33
2023-01-20T05:10:15.028Z,22.17
2023-01-20T05:12:43.592Z,21.75
2023-01-20T05:15:12.920Z,22.73
2023-01-20T05:17:41.781Z,23.35
2023-01-20T05:20:12.597Z,21.65
2023-01-20T05:22:43.067Z,24.70
2023-01-20T05:25:11.697Z,25.33
2023-01-20T05:27:40.325Z,26.45
2023-01-20T05:30:10.782Z,23.83
2023-01-20T05:32:38.975Z,23.15
2023-01-20T05:35:11.369Z,24.13
2023-01-20T05:37:41.178Z,23.05
2023-01-20T05:40:11.779Z,25.27
2023-01-20T05:42:40.789Z,25.98
2023-01-20T05:45:10.476Z,25.55
2023-01-20T05:47:38.906Z,25.15
2023-01-20T05:50:08.874Z,22.70
2023-01-20T05:52:37.188Z,22.55
2023-01-20T05:55:07.689Z,24.65
2023-01-20T05:57:36.145Z,24.55
2023-01-20T06:00:07.932Z,24.23
2023-01-20T06:02:37.257Z,24.88
2023-01-20T06:05:06.827Z,24.00
2023-01-20T06:07:35.354Z,24.70
2023-01-20T06:10:03.883Z,23.85
2023-01-20T06:12:33.882Z,26.42
2023-01-20T06:15:02.419Z,24.15
2023-01-20T06:17:31.174Z,24.92
2023-01-20T06:20:00.467Z,26.02
2023-01-20T06:22:29.025Z,24.73
2023-01-20T06:24:58.073Z,25.75
2023-01-20T06:27:26.287Z,25.13
2023-01-20T06:29:56.491Z,24.45
2023-01-20T06:32:25.056Z,24.45
2023-01-20T06:34:54.012Z,24.90
2023-01-20T06:37:22.524Z,26.27
2023-01-20T06:39:51.223Z,23.73
2023-01-20T06:42:19.613Z,22.35
2023-01-20T06:44:48.164Z,26.15
2023-01-20T06:47:17.978Z,24.90
2023-01-20T06:49:47.916Z,22.52
2023-01-20T06:52:18.048Z,24.15
2023-01-20T06:54:46.475Z,23.38
2023-01-20T06:57:14.882Z,23.98
2023-01-20T06:59:43.122Z,23.58
2023-01-20T07:02:13.132Z,22.08
2023-01-20T07:04:43.556Z,23.08
2023-01-20T07:07:13.907Z,22.90
2023-01-20T07:09:42.417Z,22.38
2023-01-20T07:12:10.924Z,23.02
2023-01-20T07:14:39.669Z,22.73
2023-01-20T07:17:13.179Z,22.67
2023-01-20T07:19:43.273Z,21.75
2023-01-20T07:22:11.555Z,21.48
2023-01-20T07:24:40.254Z,21.85
2023-01-20T07:27:08.798Z,21.83
2023-01-20T07:29:38.127Z,22.27
2023-01-20T07:32:07.031Z,22.08
2023-01-20T07:34:35.700Z,23.52
2023-01-20T07:37:05.433Z,20.85
2023-01-20T07:39:33.983Z,23.38
2023-01-20T07:42:05.541Z,20.90
2023-01-20T07:44:34.265Z,22.95
2023-01-20T07:47:02.906Z,19.17
2023-01-20T07:49:31.345Z,20.70
2023-01-20T07:51:59.773Z,19.58
2023-01-20T07:54:29.561Z,20.67
2023-01-20T07:56:57.785Z,21.33
2023-01-20T07:59:26.769Z,21.00
2023-01-20T08:01:55.156Z,22.48
2023-01-20T08:04:23.390Z,21.40
2023-01-20T08:06:51.997Z,21.27
2023-01-20T08:09:20.389Z,19.35
2023-01-20T08:11:50.441Z,19.67
2023-01-20T08:14:18.686Z,19.67
2023-01-20T08:16:47.025Z,20.02
2023-01-20T08:19:15.295Z,19.67
2023-01-20T08:21:43.642Z,18.00
2023-01-20T08:24:12.169Z,17.92
2023-01-20T08:26:40.799Z,17.30
2023-01-20T08:29:11.429Z,18.38
2023-01-20T08:31:41.287Z,16.30
2023-01-20T08:34:10.433Z,18.00
2023-01-20T08:36:42.093Z,16.95
2023-01-20T08:39:14.541Z,17.77
2023-01-20T08:41:45.504Z,17.52
2023-01-20T08:44:17.546Z,16.67
2023-01-20T08:46:46.970Z,17.40
2023-01-20T08:49:18.566Z,17.60
2023-01-20T08:51:47.190Z,15.70
2023-01-20T08:54:16.204Z,15.77
2023-01-20T08:56:45.196Z,17.05
2023-01-20T08:59:14.800Z,16.25
2023-01-20T09:01:43.755Z,17.48
2023-01-20T09:04:13.216Z,15.48
2023-01-20T09:06:45.104Z,15.40
2023-01-20T09:09:15.018Z,16.20
2023-01-20T09:11:45.060Z,17.40
2023-01-20T09:14:14.759Z,15.35
2023-01-20T09:16:43.406Z,15.35
2023-01-20T09:19:12.106Z,14.68
2023-01-20T09:21:40.411Z,13.10
2023-01-20T09:24:09.584Z,13.55
2023-01-20T09:26:41.061Z,13.65
2023-01-20T09:29:13.471Z,11.90
2023-01-20T09:31:46.857Z,12.27
2023-01-20T09:34:19.940Z,13.43
2023-01-20T09:36:52.546Z,12.75
2023-01-20T09:39:39.464Z,13.13
2023-01-20T09:42:43.643Z,12.80
2023-01-20T09:45:25.022Z,12.20
2023-01-20T09:48:06.848Z,12.38
2023-01-20T09:51:05.510Z,11.93
2023-01-20T09:53:52.005Z,11.75
2023-01-20T09:56:25.802Z,12.05
2023-01-20T09:59:01.955Z,12.45
2023-01-20T10:01:37.770Z,11.60
2023-01-20T10:04:15.705Z,11.60
2023-01-20T10:06:50.116Z,11.45
2023-01-20T10:09:25.999Z,12.75
2023-01-20T10:12:03.041Z,13.50
2023-01-20T10:14:36.562Z,12.82
2023-01-20T10:17:11.318Z,13.63
2023-01-20T10:19:49.354Z,13.05
2023-01-20T10:22:22.580Z,14.23
2023-01-20T10:24:56.630Z,15.23
2023-01-20T10:27:30.074Z,15.38
2023-01-20T10:30:08.983Z,16.83
2023-01-20T10:32:40.037Z,15.63
2023-01-20T10:35:18.697Z,16.80
2023-01-20T10:37:48.084Z,16.35
2023-01-20T10:40:27.024Z,16.67
2023-01-20T10:43:00.504Z,15.57
2023-01-20T10:45:42.056Z,14.55
2023-01-20T10:48:22.778Z,14.05
2023-01-20T10:51:01.305Z,15.10
2023-01-20T10:53:42.540Z,13.60
2023-01-20T10:56:36.358Z,12.25
2023-01-20T10:59:14.105Z,14.77
2023-01-20T11:01:46.707Z,14.52
2023-01-20T11:06:53.795Z,13.20
2023-01-20T11:09:35.344Z,13.00
2023-01-20T11:12:05.647Z,14.93
2023-01-20T11:14:34.877Z,13.35
2023-01-20T11:17:07.469Z,13.32
2023-01-20T11:19:52.618Z,17.13
2023-01-20T11:22:31.155Z,12.32
2023-01-20T11:25:04.168Z,11.40
2023-01-20T11:27:44.507Z,13.57
2023-01-20T11:30:28.337Z,13.13
2023-01-20T11:33:18.069Z,12.48
2023-01-20T11:36:01.235Z,14.43
2023-01-20T11:38:33.167Z,14.45
2023-01-20T11:41:01.405Z,18.80
2023-01-20T11:43:38.354Z,16.67
2023-01-20T11:46:22.545Z,18.17
2023-01-20T11:48:51.930Z,15.13
2023-01-20T11:51:25.235Z,14.35
2023-01-20T11:54:10.053Z,17.08
2023-01-20T11:56:43.398Z,18.42
2023-01-20T11:59:25.263Z,14.98
2023-01-20T12:02:02.983Z,28.52
2023-01-20T12:04:50.929Z,17.08
2023-01-20T12:07:28.036Z,16.27
2023-01-20T12:10:05.995Z,15.65
2023-01-20T12:12:41.577Z,18.17
2023-01-20T12:15:18.021Z,17.20
2023-01-20T12:17:55.101Z,16.63
2023-01-20T12:20:31.948Z,18.25
2023-01-20T12:23:21.103Z,16.83
2023-01-20T12:25:58.820Z,17.00
2023-01-20T12:28:35.452Z,16.33
2023-01-20T12:31:05.562Z,14.45
2023-01-20T12:33:37.260Z,15.80
2023-01-20T12:36:56.828Z,18.35
2023-01-20T12:39:42.855Z,15.02
2023-01-20T12:43:02.854Z,13.70
2023-01-20T12:45:53.317Z,13.63
2023-01-20T12:48:35.181Z,13.77
2023-01-20T12:51:21.477Z,17.27
2023-01-20T12:54:30.529Z,15.20
2023-01-20T12:57:22.123Z,13.93
2023-01-20T13:03:09.432Z,20.08
2023-01-20T13:06:13.635Z,14.68
2023-01-20T13:08:51.310Z,19.17
2023-01-20T13:11:39.129Z,19.00
2023-01-20T13:14:15.592Z,17.17
2023-01-20T13:16:56.959Z,17.85
2023-01-20T13:19:31.125Z,19.70
2023-01-20T13:22:14.902Z,20.50
2023-01-20T13:24:47.095Z,20.35
2023-01-20T13:27:19.333Z,20.67
2023-01-20T13:29:56.693Z,18.25
2023-01-20T13:32:36.473Z,15.43
2023-01-20T13:35:45.789Z,17.25
2023-01-20T13:38:24.191Z,14.52
2023-01-20T13:40:57.037Z,14.00
2023-01-20T13:43:48.449Z,14.05
2023-01-20T13:46:51.365Z,12.90
2023-01-20T13:49:48.685Z,13.48
2023-01-20T13:52:17.367Z,12.93
2023-01-20T13:54:48.980Z,14.38
2023-01-20T13:57:38.017Z,13.80
2023-01-20T14:00:18.546Z,12.45
2023-01-20T14:02:49.119Z,13.77
2023-01-20T14:05:32.961Z,12.23
2023-01-20T14:08:01.822Z,13.77
2023-01-20T14:10:30.547Z,11.68
2023-01-20T14:12:59.082Z,11.48
2023-01-20T14:15:40.094Z,16.83
2023-01-20T14:18:18.829Z,16.27
2023-01-20T14:21:03.684Z,14.50
2023-01-20T14:23:36.936Z,16.65
2023-01-20T14:26:13.008Z,14.88
2023-01-20T14:28:50.926Z,18.00
2023-01-20T14:31:40.479Z,17.50
2023-01-20T14:34:28.141Z,17.25
2023-01-20T14:37:02.379Z,15.45
2023-01-20T14:39:31.996Z,15.38
2023-01-20T14:42:02.479Z,16.25
2023-01-20T14:44:33.814Z,21.60
2023-01-20T14:47:04.723Z,14.88
2023-01-20T14:49:39.590Z,15.52
2023-01-20T14:52:13.857Z,15.73
2023-01-20T14:54:45.908Z,14.25
2023-01-20T14:57:36.286Z,15.63
2023-01-20T15:00:22.959Z,11.98
2023-01-20T15:03:09.468Z,13.75
2023-01-20T15:05:41.908Z,16.25
2023-01-20T15:08:26.834Z,12.17
2023-01-20T15:11:21.951Z,14.00
2023-01-20T15:14:12.389Z,14.93
2023-01-20T15:16:51.908Z,13.73
2023-01-20T15:19:36.184Z,14.77
2023-01-20T15:22:23.543Z,17.77
2023-01-20T15:24:54.893Z,16.38
2023-01-20T15:27:31.348Z,18.52
2023-01-20T15:30:21.403Z,21.55
2023-01-20T15:32:51.188Z,15.25
2023-01-20T15:35:22.946Z,18.52
2023-01-20T15:37:52.245Z,14.43
2023-01-20T15:40:25.003Z,15.00
2023-01-20T15:45:22.132Z,16.42
2023-01-20T15:47:50.404Z,14.60
2023-01-20T15:50:23.033Z,15.90
2023-01-20T15:55:22.266Z,16.42
2023-01-20T15:57:53.517Z,16.95
2023-01-20T16:00:25.024Z,20.05
2023-01-20T16:02:53.790Z,27.33
2023-01-20T16:05:22.640Z,29.95
2023-01-20T16:07:51.629Z,55.35
2023-01-20T16:10:22.036Z,55.47
2023-01-20T16:12:51.275Z,43.90
2023-01-20T16:15:20.414Z,41.10
2023-01-20T16:17:51.189Z,30.00
2023-01-20T16:20:23.068Z,33.60
2023-01-20T16:22:52.137Z,25.98
2023-01-20T16:25:22.431Z,24.85
2023-01-20T16:27:51.223Z,32.35
2023-01-20T16:30:23.268Z,41.55
2023-01-20T16:32:52.073Z,27.38
2023-01-20T16:35:23.708Z,27.80
2023-01-20T16:37:53.150Z,18.63
2023-01-20T16:40:24.747Z,25.38
2023-01-20T16:42:56.156Z,26.23
2023-01-20T16:45:30.444Z,25.52
2023-01-20T16:47:59.315Z,28.98
2023-01-20T16:50:28.361Z,28.95
2023-01-20T16:52:57.632Z,30.55
2023-01-20T16:55:27.320Z,29.55
2023-01-20T16:57:55.777Z,27.77
2023-01-20T17:00:24.406Z,31.75
2023-01-20T17:02:53.316Z,27.75
2023-01-20T17:05:25.506Z,36.22
2023-01-20T17:07:56.758Z,46.85
2023-01-20T17:10:29.459Z,41.47
2023-01-20T17:15:27.099Z,28.10
2023-01-20T17:17:59.783Z,29.10
2023-01-20T17:22:56.928Z,28.90
2023-01-20T17:25:27.616Z,34.55
2023-01-20T17:27:56.137Z,31.77
2023-01-20T17:30:26.626Z,32.22
2023-01-20T17:32:55.461Z,32.25
2023-01-20T17:35:24.192Z,31.00
2023-01-20T17:37:52.793Z,32.05
2023-01-20T17:40:21.161Z,29.90
2023-01-20T17:42:53.913Z,28.80
2023-01-20T17:45:22.822Z,26.70
2023-01-20T17:47:52.723Z,32.22
2023-01-20T17:50:21.309Z,25.17
2023-01-20T17:52:49.915Z,20.90
2023-01-20T17:55:18.539Z,23.27
2023-01-20T17:57:47.832Z,21.67
2023-01-20T18:00:20.336Z,24.42
2023-01-20T18:02:48.555Z,21.97
2023-01-20T18:05:17.158Z,22.65
2023-01-20T18:07:45.528Z,21.55
2023-01-20T18:10:14.623Z,22.13
2023-01-20T18:12:43.135Z,20.95
2023-01-20T18:15:12.355Z,23.40
2023-01-20T18:17:43.320Z,26.08
2023-01-20T18:20:15.167Z,27.10
2023-01-20T18:22:49.366Z,22.63
2023-01-20T18:25:18.075Z,27.05
2023-01-20T18:27:46.626Z,26.38
2023-01-20T18:30:16.431Z,24.15
2023-01-20T18:32:46.811Z,23.65
2023-01-20T18:35:15.953Z,23.92
2023-01-20T18:37:47.877Z,25.65
2023-01-20T18:40:16.500Z,30.05
2023-01-20T18:42:45.300Z,28.42
2023-01-20T18:45:13.605Z,27.30
2023-01-20T18:47:42.048Z,28.30
2023-01-20T18:50:13.024Z,31.35
2023-01-20T18:52:41.374Z,26.88
2023-01-20T18:55:10.865Z,30.67
2023-01-20T18:57:39.566Z,31.95
2023-01-20T19:00:10.282Z,31.52
2023-01-20T19:02:38.776Z,33.50
2023-01-20T19:05:09.318Z,33.35
2023-01-20T19:07:39.148Z,35.50
2023-01-20T19:10:08.151Z,35.67
2023-01-20T19:12:36.541Z,34.30
2023-01-20T19:15:05.924Z,34.47
2023-01-20T19:17:34.220Z,36.20
2023-01-20T19:20:04.389Z,34.17
2023-01-20T19:22:32.579Z,33.20
2023-01-20T19:25:02.383Z,30.85
2023-01-20T19:27:32.615Z,31.20
2023-01-20T19:30:01.041Z,25.88
2023-01-20T19:32:29.435Z,25.75
2023-01-20T19:34:58.966Z,25.92
2023-01-20T19:37:28.348Z,27.27
2023-01-20T19:39:57.073Z,27.15
2023-01-20T19:42:27.292Z,25.40
2023-01-20T19:44:55.715Z,29.48
2023-01-20T19:47:24.298Z,28.88
2023-01-20T19:49:52.712Z,30.77
2023-01-20T19:52:21.037Z,30.15
2023-01-20T19:54:51.718Z,27.23
2023-01-20T19:57:20.278Z,29.92
2023-01-20T19:59:51.060Z,25.02
2023-01-20T20:02:19.772Z,25.92
2023-01-20T20:04:48.684Z,26.58
2023-01-20T20:07:17.141Z,24.15
2023-01-20T20:09:45.446Z,25.27
2023-01-20T20:12:13.942Z,24.92
2023-01-20T20:14:42.235Z,32.38
2023-01-20T20:17:12.112Z,37.47
2023-01-20T20:19:40.968Z,29.48
2023-01-20T20:22:09.427Z,29.20
2023-01-20T20:24:37.722Z,30.90
2023-01-20T20:27:05.929Z,29.60
2023-01-20T20:29:34.338Z,30.70
2023-01-20T20:32:03.189Z,28.25
2023-01-20T20:34:33.421Z,30.73
2023-01-20T20:37:02.843Z,30.42
2023-01-20T20:39:31.110Z,33.47
2023-01-20T20:42:00.108Z,34.13
2023-01-20T20:44:28.700Z,34.30
2023-01-20T20:46:57.894Z,30.38
2023-01-20T20:49:26.602Z,33.33
2023-01-20T20:51:56.338Z,36.25
2023-01-20T20:54:24.806Z,32.97
2023-01-20T20:56:53.547Z,35.42
2023-01-20T20:59:25.170Z,33.92
2023-01-20T21:01:54.703Z,32.22
2023-01-20T21:04:23.242Z,35.70
2023-01-20T21:06:51.746Z,37.92
2023-01-20T21:09:21.834Z,38.38
2023-01-20T21:11:50.060Z,37.97
2023-01-20T21:14:21.208Z,34.08
2023-01-20T21:16:50.609Z,35.17
2023-01-20T21:19:18.849Z,34.88
2023-01-20T21:21:47.248Z,34.72
2023-01-20T21:24:15.483Z,36.95
2023-01-20T21:26:45.418Z,33.58
2023-01-20T21:29:14.668Z,35.40
2023-01-20T21:31:43.293Z,36.03
2023-01-20T21:34:15.335Z,35.78
2023-01-20T21:36:43.688Z,33.33
2023-01-20T21:39:16.168Z,32.83
2023-01-20T21:41:46.721Z,34.28
2023-01-20T21:44:32.750Z,32.42
2023-01-20T21:47:03.238Z,32.22
2023-01-20T21:49:49.666Z,30.80
2023-01-20T21:52:37.918Z,31.00
2023-01-20T21:55:08.731Z,34.45
2023-01-20T21:57:39.691Z,32.58
2023-01-20T22:00:10.657Z,34.47
2023-01-20T22:02:44.809Z,34.55
2023-01-20T22:05:18.781Z,32.35
2023-01-20T22:07:48.382Z,31.30
2023-01-20T22:10:18.058Z,33.58
2023-01-20T22:12:48.255Z,32.13
2023-01-20T22:15:16.894Z,32.47
2023-01-20T22:17:45.321Z,33.00
2023-01-20T22:20:14.367Z,32.28
2023-01-20T22:22:43.272Z,33.15
2023-01-20T22:25:11.797Z,32.10
2023-01-20T22:27:40.151Z,32.95
2023-01-20T22:30:12.081Z,31.48
2023-01-20T22:32:40.602Z,33.58
2023-01-20T22:35:12.644Z,36.88
2023-01-20T22:37:41.069Z,36.42
2023-01-20T22:40:11.368Z,37.83
2023-01-20T22:42:39.827Z,40.55
2023-01-20T22:45:11.977Z,38.88
2023-01-20T22:47:40.568Z,39.78
2023-01-20T22:50:10.963Z,43.67
2023-01-20T22:52:39.202Z,43.70
2023-01-20T22:55:08.798Z,140.50
2023-01-20T22:57:37.105Z,41.85
2023-01-20T23:00:08.477Z,37.22
2023-01-20T23:02:38.835Z,37.05
2023-01-20T23:05:07.679Z,35.33
2023-01-20T23:07:37.606Z,51.88
2023-01-20T23:10:07.304Z,40.67
2023-01-20T23:12:35.747Z,40.00
2023-01-20T23:15:04.616Z,38.90
2023-01-20T23:17:33.703Z,37.38
2023-01-20T23:20:03.601Z,36.83
2023-01-20T23:22:32.073Z,35.78
2023-01-20T23:25:00.444Z,34.80
2023-01-20T23:27:29.174Z,34.85
2023-01-20T23:29:57.827Z,32.22
2023-01-20T23:32:26.417Z,31.45
2023-01-20T23:34:55.054Z,33.10
2023-01-20T23:37:25.124Z,37.00
2023-01-20T23:39:53.423Z,34.75
2023-01-20T23:42:22.216Z,34.58
2023-01-20T23:44:50.759Z,34.80
2023-01-20T23:47:19.103Z,36.88
2023-01-20T23:49:47.481Z,37.00
2023-01-20T23:52:16.138Z,35.40
2023-01-20T23:54:45.924Z,39.80
2023-01-20T23:57:14.807Z,37.83
2023-01-20T23:59:43.375Z,38.45
